sensor_id;sensor_type;location;lat;lon;timestamp;pressure;altitude;pressure_sealevel;temperature;humidity
9969;BME280;5025;48.890;9.278;2023-11-21T00:01:54;98206.59;;;8.92;90.67
9969;BME280;5025;48.890;9.278;2023-11-21T00:04:19;98211.59;;;8.89;90.87
9969;BME280;5025;48.890;9.278;2023-11-21T00:06:44;98208.31;;;8.87;91.08
9969;BME280;5025;48.890;9.278;2023-11-21T00:09:12;98201.28;;;8.86;91.16
9969;BME280;5025;48.890;9.278;2023-11-21T00:11:38;98198.59;;;8.86;91.25
9969;BME280;5025;48.890;9.278;2023-11-21T00:14:03;98201.75;;;8.83;91.13
9969;BME280;5025;48.890;9.278;2023-11-21T00:16:28;98201.19;;;8.81;91.35
9969;BME280;5025;48.890;9.278;2023-11-21T00:18:54;98200.59;;;8.78;91.45
9969;BME280;5025;48.890;9.278;2023-11-21T00:21:20;98200.81;;;8.77;91.44
9969;BME280;5025;48.890;9.278;2023-11-21T00:23:45;98196.25;;;8.77;91.68
9969;BME280;5025;48.890;9.278;2023-11-21T00:26:10;98199.63;;;8.73;91.75
9969;BME280;5025;48.890;9.278;2023-11-21T00:28:35;98191.22;;;8.69;92.14
9969;BME280;5025;48.890;9.278;2023-11-21T00:31:01;98191.22;;;8.69;91.87
9969;BME280;5025;48.890;9.278;2023-11-21T00:33:26;98193.28;;;8.67;92.39
9969;BME280;5025;48.890;9.278;2023-11-21T00:35:52;98193.06;;;8.69;92.43
9969;BME280;5025;48.890;9.278;2023-11-21T00:38:17;98197.41;;;8.70;92.20
9969;BME280;5025;48.890;9.278;2023-11-21T00:40:45;98193.75;;;8.64;92.64
9969;BME280;5025;48.890;9.278;2023-11-21T00:43:10;98195.06;;;8.61;93.04
9969;BME280;5025;48.890;9.278;2023-11-21T00:45:35;98188.84;;;8.61;92.94
9969;BME280;5025;48.890;9.278;2023-11-21T00:48:02;98188.25;;;8.59;93.41
9969;BME280;5025;48.890;9.278;2023-11-21T00:50:27;98194.09;;;8.56;93.54
9969;BME280;5025;48.890;9.278;2023-11-21T00:52:52;98190.59;;;8.55;93.77
9969;BME280;5025;48.890;9.278;2023-11-21T00:55:17;98192.00;;;8.58;93.72
9969;BME280;5025;48.890;9.278;2023-11-21T00:57:43;98201.72;;;8.59;93.70
9969;BME280;5025;48.890;9.278;2023-11-21T01:00:09;98194.69;;;8.58;94.04
9969;BME280;5025;48.890;9.278;2023-11-21T01:02:43;98191.88;;;8.53;94.11
9969;BME280;5025;48.890;9.278;2023-11-21T01:05:10;98194.34;;;8.54;94.53
9969;BME280;5025;48.890;9.278;2023-11-21T01:07:35;98196.78;;;8.56;94.32
9969;BME280;5025;48.890;9.278;2023-11-21T01:10:02;98195.75;;;8.57;94.75
9969;BME280;5025;48.890;9.278;2023-11-21T01:12:27;98190.94;;;8.59;94.65
9969;BME280;5025;48.890;9.278;2023-11-21T01:14:53;98196.91;;;8.61;94.71
9969;BME280;5025;48.890;9.278;2023-11-21T01:17:18;98189.69;;;8.61;94.80
9969;BME280;5025;48.890;9.278;2023-11-21T01:19:43;98192.59;;;8.60;94.74
9969;BME280;5025;48.890;9.278;2023-11-21T01:22:09;98190.13;;;8.58;95.04
9969;BME280;5025;48.890;9.278;2023-11-21T01:24:34;98195.97;;;8.55;95.18
9969;BME280;5025;48.890;9.278;2023-11-21T01:26:59;98192.22;;;8.56;95.63
9969;BME280;5025;48.890;9.278;2023-11-21T01:29:24;98189.31;;;8.58;95.64
9969;BME280;5025;48.890;9.278;2023-11-21T01:31:50;98193.06;;;8.57;95.83
9969;BME280;5025;48.890;9.278;2023-11-21T01:34:15;98193.06;;;8.57;95.76
9969;BME280;5025;48.890;9.278;2023-11-21T01:36:40;98192.22;;;8.56;95.99
9969;BME280;5025;48.890;9.278;2023-11-21T01:39:05;98196.78;;;8.56;96.18
9969;BME280;5025;48.890;9.278;2023-11-21T01:41:36;98199.47;;;8.56;96.33
9969;BME280;5025;48.890;9.278;2023-11-21T01:44:02;98196.34;;;8.59;96.47
9969;BME280;5025;48.890;9.278;2023-11-21T01:46:27;98197.97;;;8.60;96.51
9969;BME280;5025;48.890;9.278;2023-11-21T01:48:54;98198.78;;;8.60;96.51
9969;BME280;5025;48.890;9.278;2023-11-21T01:51:19;98190.72;;;8.60;96.73
9969;BME280;5025;48.890;9.278;2023-11-21T01:53:45;98194.00;;;8.63;96.55
9969;BME280;5025;48.890;9.278;2023-11-21T01:56:12;98184.88;;;8.64;96.71
9969;BME280;5025;48.890;9.278;2023-11-21T01:58:38;98187.22;;;8.60;96.98
9969;BME280;5025;48.890;9.278;2023-11-21T02:01:04;98189.06;;;8.59;97.19
9969;BME280;5025;48.890;9.278;2023-11-21T02:03:30;98192.84;;;8.58;97.34
9969;BME280;5025;48.890;9.278;2023-11-21T02:05:56;98188.84;;;8.61;97.47
9969;BME280;5025;48.890;9.278;2023-11-21T02:08:21;98190.03;;;8.65;97.53
9969;BME280;5025;48.890;9.278;2023-11-21T02:10:46;98192.84;;;8.70;97.37
9969;BME280;5025;48.890;9.278;2023-11-21T02:13:12;98195.06;;;8.73;97.34
9969;BME280;5025;48.890;9.278;2023-11-21T02:15:38;98191.91;;;8.76;97.20
9969;BME280;5025;48.890;9.278;2023-11-21T02:18:03;98200.00;;;8.76;97.16
9969;BME280;5025;48.890;9.278;2023-11-21T02:20:31;98194.84;;;8.75;97.24
9969;BME280;5025;48.890;9.278;2023-11-21T02:23:00;98191.09;;;8.76;97.20
9969;BME280;5025;48.890;9.278;2023-11-21T02:25:31;98185.72;;;8.76;97.38
9969;BME280;5025;48.890;9.278;2023-11-21T02:28:02;98188.63;;;8.74;97.43
9969;BME280;5025;48.890;9.278;2023-11-21T02:30:28;98185.72;;;8.76;97.50
9969;BME280;5025;48.890;9.278;2023-11-21T02:32:54;98183.25;;;8.74;97.51
9969;BME280;5025;48.890;9.278;2023-11-21T02:35:20;98188.63;;;8.74;97.62
9969;BME280;5025;48.890;9.278;2023-11-21T02:37:46;98184.91;;;8.75;97.73
9969;BME280;5025;48.890;9.278;2023-11-21T02:40:12;98178.69;;;8.75;97.82
9969;BME280;5025;48.890;9.278;2023-11-21T02:42:38;98183.38;;;8.79;97.79
9969;BME280;5025;48.890;9.278;2023-11-21T02:45:05;98178.59;;;8.82;97.96
9969;BME280;5025;48.890;9.278;2023-11-21T02:47:30;98179.16;;;8.84;97.70
9969;BME280;5025;48.890;9.278;2023-11-21T02:49:55;98177.06;;;8.86;97.79
9969;BME280;5025;48.890;9.278;2023-11-21T02:52:21;98171.22;;;8.89;97.71
9969;BME280;5025;48.890;9.278;2023-11-21T02:54:46;98168.50;;;8.89;97.74
9969;BME280;5025;48.890;9.278;2023-11-21T02:57:12;98170.16;;;8.90;97.65
9969;BME280;5025;48.890;9.278;2023-11-21T02:59:37;98172.28;;;8.88;97.36
9969;BME280;5025;48.890;9.278;2023-11-21T03:02:02;98171.44;;;8.87;97.56
9969;BME280;5025;48.890;9.278;2023-11-21T03:04:27;98174.97;;;8.88;97.56
9969;BME280;5025;48.890;9.278;2023-11-21T03:06:53;98172.28;;;8.88;97.55
9969;BME280;5025;48.890;9.278;2023-11-21T03:09:18;98168.75;;;8.87;97.70
9969;BME280;5025;48.890;9.278;2023-11-21T03:11:43;98176.00;;;8.87;97.65
9969;BME280;5025;48.890;9.278;2023-11-21T03:14:08;98173.91;;;8.89;97.76
9969;BME280;5025;48.890;9.278;2023-11-21T03:16:34;98178.00;;;8.91;97.70
9969;BME280;5025;48.890;9.278;2023-11-21T03:18:59;98187.97;;;8.91;97.49
9969;BME280;5025;48.890;9.278;2023-11-21T03:21:25;98178.81;;;8.92;97.36
9969;BME280;5025;48.890;9.278;2023-11-21T03:23:51;98180.94;;;8.90;97.43
9969;BME280;5025;48.890;9.278;2023-11-21T03:26:17;98188.22;;;8.89;97.64
9969;BME280;5025;48.890;9.278;2023-11-21T03:28:42;98188.22;;;8.89;97.63
9969;BME280;5025;48.890;9.278;2023-11-21T03:31:08;98192.97;;;8.87;97.85
9969;BME280;5025;48.890;9.278;2023-11-21T03:33:36;98188.44;;;8.88;98.03
9969;BME280;5025;48.890;9.278;2023-11-21T03:36:01;98183.84;;;8.88;97.66
9969;BME280;5025;48.890;9.278;2023-11-21T03:38:28;98183.63;;;8.90;97.69
9969;BME280;5025;48.890;9.278;2023-11-21T03:40:54;98186.31;;;8.90;97.70
9969;BME280;5025;48.890;9.278;2023-11-21T03:43:19;98188.78;;;8.91;97.65
9969;BME280;5025;48.890;9.278;2023-11-21T03:45:44;98183.41;;;8.91;97.81
9969;BME280;5025;48.890;9.278;2023-11-21T03:48:12;98184.22;;;8.92;97.71
9969;BME280;5025;48.890;9.278;2023-11-21T03:50:37;98187.97;;;8.91;97.52
9969;BME280;5025;48.890;9.278;2023-11-21T03:53:02;98184.22;;;8.92;97.70
9969;BME280;5025;48.890;9.278;2023-11-21T03:55:28;98189.59;;;8.92;97.61
9969;BME280;5025;48.890;9.278;2023-11-21T03:57:56;98192.06;;;8.93;97.55
9969;BME280;5025;48.890;9.278;2023-11-21T04:00:22;98198.28;;;8.94;97.56
9969;BME280;5025;48.890;9.278;2023-11-21T04:02:47;98195.81;;;8.92;97.32
9969;BME280;5025;48.890;9.278;2023-11-21T04:05:12;98194.97;;;8.92;97.47
9969;BME280;5025;48.890;9.278;2023-11-21T04:07:38;98189.59;;;8.92;97.23
9969;BME280;5025;48.890;9.278;2023-11-21T04:10:07;98187.38;;;8.89;97.44
9969;BME280;5025;48.890;9.278;2023-11-21T04:12:37;98188.06;;;8.84;97.68
9969;BME280;5025;48.890;9.278;2023-11-21T04:15:03;98200.13;;;8.82;97.71
9969;BME280;5025;48.890;9.278;2023-11-21T04:17:29;98200.00;;;8.76;97.85
9969;BME280;5025;48.890;9.278;2023-11-21T04:19:54;98205.25;;;8.71;97.99
9969;BME280;5025;48.890;9.278;2023-11-21T04:22:19;98207.38;;;8.69;98.13
9969;BME280;5025;48.890;9.278;2023-11-21T04:24:45;98205.13;;;8.66;98.47
9969;BME280;5025;48.890;9.278;2023-11-21T04:27:10;98198.91;;;8.66;98.26
9969;BME280;5025;48.890;9.278;2023-11-21T04:29:35;98205.81;;;8.61;98.51
9969;BME280;5025;48.890;9.278;2023-11-21T04:32:01;98200.06;;;8.58;98.63
9969;BME280;5025;48.890;9.278;2023-11-21T04:34:28;98207.09;;;8.59;98.84
9969;BME280;5025;48.890;9.278;2023-11-21T04:36:55;98204.97;;;8.61;98.76
9969;BME280;5025;48.890;9.278;2023-11-21T04:39:20;98210.97;;;8.63;98.55
9969;BME280;5025;48.890;9.278;2023-11-21T04:41:46;98201.13;;;8.57;98.77
9969;BME280;5025;48.890;9.278;2023-11-21T04:44:11;98206.75;;;8.55;98.87
9969;BME280;5025;48.890;9.278;2023-11-21T04:46:36;98210.81;;;8.58;98.81
9969;BME280;5025;48.890;9.278;2023-11-21T04:49:01;98212.47;;;8.59;98.77
9969;BME280;5025;48.890;9.278;2023-11-21T04:51:27;98216.22;;;8.58;98.93
9969;BME280;5025;48.890;9.278;2023-11-21T04:53:52;98210.59;;;8.59;98.90
9969;BME280;5025;48.890;9.278;2023-11-21T04:56:17;98212.25;;;8.60;98.91
9969;BME280;5025;48.890;9.278;2023-11-21T04:58:44;98214.94;;;8.60;98.56
9969;BME280;5025;48.890;9.278;2023-11-21T05:01:09;98219.50;;;8.60;98.63
9969;BME280;5025;48.890;9.278;2023-11-21T05:03:35;98219.75;;;8.58;98.73
9969;BME280;5025;48.890;9.278;2023-11-21T05:06:00;98218.31;;;8.56;98.53
9969;BME280;5025;48.890;9.278;2023-11-21T05:08:26;98212.34;;;8.54;98.96
9969;BME280;5025;48.890;9.278;2023-11-21T05:10:52;98220.44;;;8.54;99.10
9969;BME280;5025;48.890;9.278;2023-11-21T05:13:17;98222.06;;;8.55;98.94
9969;BME280;5025;48.890;9.278;2023-11-21T05:15:43;98215.63;;;8.56;99.09
9969;BME280;5025;48.890;9.278;2023-11-21T05:18:09;98219.13;;;8.56;99.17
9969;BME280;5025;48.890;9.278;2023-11-21T05:20:35;98219.97;;;8.57;99.27
9969;BME280;5025;48.890;9.278;2023-11-21T05:23:01;98219.34;;;8.55;98.92
9969;BME280;5025;48.890;9.278;2023-11-21T05:25:26;98222.91;;;8.55;99.33
9969;BME280;5025;48.890;9.278;2023-11-21T05:27:51;98229.09;;;8.56;99.37
9969;BME280;5025;48.890;9.278;2023-11-21T05:30:18;98236.13;;;8.57;99.63
9969;BME280;5025;48.890;9.278;2023-11-21T05:32:43;98238.59;;;8.58;99.37
9969;BME280;5025;48.890;9.278;2023-11-21T05:35:09;98237.75;;;8.58;99.58
9969;BME280;5025;48.890;9.278;2023-11-21T05:37:37;98242.31;;;8.57;99.59
9969;BME280;5025;48.890;9.278;2023-11-21T05:40:05;98240.19;;;8.59;99.68
9969;BME280;5025;48.890;9.278;2023-11-21T05:42:32;98245.34;;;8.61;99.86
9969;BME280;5025;48.890;9.278;2023-11-21T05:44:57;98242.66;;;8.61;99.82
9969;BME280;5025;48.890;9.278;2023-11-21T05:47:24;98252.63;;;8.60;99.76
9969;BME280;5025;48.890;9.278;2023-11-21T05:49:51;98253.44;;;8.61;99.82
9969;BME280;5025;48.890;9.278;2023-11-21T05:52:17;98257.78;;;8.62;100.00
9969;BME280;5025;48.890;9.278;2023-11-21T05:54:43;98256.72;;;8.63;99.61
9969;BME280;5025;48.890;9.278;2023-11-21T05:57:08;98251.81;;;8.60;99.94
9969;BME280;5025;48.890;9.278;2023-11-21T05:59:34;98266.06;;;8.60;100.00
9969;BME280;5025;48.890;9.278;2023-11-21T06:01:59;98259.88;;;8.60;99.85
9969;BME280;5025;48.890;9.278;2023-11-21T06:04:24;98265.25;;;8.60;100.00
9969;BME280;5025;48.890;9.278;2023-11-21T06:06:51;98258.81;;;8.61;100.00
9969;BME280;5025;48.890;9.278;2023-11-21T06:09:17;98269.13;;;8.64;99.89
9969;BME280;5025;48.890;9.278;2023-11-21T06:11:42;98267.50;;;8.63;100.00
9969;BME280;5025;48.890;9.278;2023-11-21T06:14:07;98270.19;;;8.63;100.00
9969;BME280;5025;48.890;9.278;2023-11-21T06:16:34;98271.22;;;8.62;100.00
9969;BME280;5025;48.890;9.278;2023-11-21T06:18:59;98278.28;;;8.63;100.00
9969;BME280;5025;48.890;9.278;2023-11-21T06:21:25;98277.44;;;8.63;100.00
9969;BME280;5025;48.890;9.278;2023-11-21T06:23:50;98291.72;;;8.63;100.00
9969;BME280;5025;48.890;9.278;2023-11-21T06:26:15;98290.66;;;8.64;100.00
9969;BME280;5025;48.890;9.278;2023-11-21T06:28:40;98298.50;;;8.66;100.00
9969;BME280;5025;48.890;9.278;2023-11-21T06:31:06;98296.03;;;8.64;100.00
9969;BME280;5025;48.890;9.278;2023-11-21T06:33:32;98288.56;;;8.66;100.00
9969;BME280;5025;48.890;9.278;2023-11-21T06:35:57;98291.50;;;8.65;100.00
9969;BME280;5025;48.890;9.278;2023-11-21T06:38:23;98295.22;;;8.64;100.00
9969;BME280;5025;48.890;9.278;2023-11-21T06:40:48;98305.19;;;8.63;100.00
9969;BME280;5025;48.890;9.278;2023-11-21T06:43:14;98306.81;;;8.64;100.00
9969;BME280;5025;48.890;9.278;2023-11-21T06:45:40;98303.53;;;8.62;100.00
9969;BME280;5025;48.890;9.278;2023-11-21T06:48:05;98307.88;;;8.63;100.00
9969;BME280;5025;48.890;9.278;2023-11-21T06:50:31;98311.59;;;8.62;100.00
9969;BME280;5025;48.890;9.278;2023-11-21T06:52:56;98301.88;;;8.61;100.00
9969;BME280;5025;48.890;9.278;2023-11-21T06:55:21;98312.66;;;8.61;100.00
9969;BME280;5025;48.890;9.278;2023-11-21T06:57:46;98311.59;;;8.62;99.99
9969;BME280;5025;48.890;9.278;2023-11-21T07:00:13;98318.03;;;8.61;100.00
9969;BME280;5025;48.890;9.278;2023-11-21T07:02:40;98315.34;;;8.61;100.00
9969;BME280;5025;48.890;9.278;2023-11-21T07:05:05;98318.03;;;8.61;100.00
9969;BME280;5025;48.890;9.278;2023-11-21T07:07:31;98318.88;;;8.61;100.00
9969;BME280;5025;48.890;9.278;2023-11-21T07:09:56;98326.72;;;8.63;100.00
9969;BME280;5025;48.890;9.278;2023-11-21T07:12:21;98335.81;;;8.62;100.00
9969;BME280;5025;48.890;9.278;2023-11-21T07:14:49;98333.72;;;8.64;100.00
9969;BME280;5025;48.890;9.278;2023-11-21T07:17:14;98337.47;;;8.63;100.00
9969;BME280;5025;48.890;9.278;2023-11-21T07:19:39;98336.63;;;8.63;100.00
9969;BME280;5025;48.890;9.278;2023-11-21T07:22:04;98338.75;;;8.60;100.00
9969;BME280;5025;48.890;9.278;2023-11-21T07:24:31;98344.03;;;8.67;100.00
9969;BME280;5025;48.890;9.278;2023-11-21T07:26:57;98348.59;;;8.67;100.00
9969;BME280;5025;48.890;9.278;2023-11-21T07:29:23;98348.38;;;8.68;100.00
9969;BME280;5025;48.890;9.278;2023-11-21T07:31:50;98355.66;;;8.68;100.00
9969;BME280;5025;48.890;9.278;2023-11-21T07:34:15;98360.19;;;8.67;100.00
9969;BME280;5025;48.890;9.278;2023-11-21T07:36:41;98354.81;;;8.67;100.00
9969;BME280;5025;48.890;9.278;2023-11-21T07:39:06;98356.91;;;8.65;100.00
9969;BME280;5025;48.890;9.278;2023-11-21T07:41:32;98361.03;;;8.68;100.00
9969;BME280;5025;48.890;9.278;2023-11-21T07:43:57;98369.91;;;8.68;100.00
9969;BME280;5025;48.890;9.278;2023-11-21T07:46:22;98370.50;;;8.70;100.00
9969;BME280;5025;48.890;9.278;2023-11-21T07:48:49;98372.75;;;8.73;100.00
9969;BME280;5025;48.890;9.278;2023-11-21T07:51:14;98373.34;;;8.75;100.00
9969;BME280;5025;48.890;9.278;2023-11-21T07:53:39;98365.28;;;8.75;100.00
9969;BME280;5025;48.890;9.278;2023-11-21T07:56:06;98376.41;;;8.79;100.00
9969;BME280;5025;48.890;9.278;2023-11-21T07:58:32;98373.47;;;8.81;100.00
9969;BME280;5025;48.890;9.278;2023-11-21T08:00:59;98377.22;;;8.79;100.00
9969;BME280;5025;48.890;9.278;2023-11-21T08:03:24;98375.38;;;8.80;100.00
9969;BME280;5025;48.890;9.278;2023-11-21T08:05:51;98382.16;;;8.83;100.00
9969;BME280;5025;48.890;9.278;2023-11-21T08:08:16;98383.22;;;8.82;100.00
9969;BME280;5025;48.890;9.278;2023-11-21T08:10:43;98379.91;;;8.79;100.00
9969;BME280;5025;48.890;9.278;2023-11-21T08:13:11;98390.69;;;8.79;100.00
9969;BME280;5025;48.890;9.278;2023-11-21T08:15:39;98393.13;;;8.81;100.00
9969;BME280;5025;48.890;9.278;2023-11-21T08:18:05;98390.69;;;8.79;100.00
9969;BME280;5025;48.890;9.278;2023-11-21T08:20:32;98393.75;;;8.83;100.00
9969;BME280;5025;48.890;9.278;2023-11-21T08:22:58;98396.22;;;8.85;100.00
9969;BME280;5025;48.890;9.278;2023-11-21T08:25:23;98399.72;;;8.85;100.00
9969;BME280;5025;48.890;9.278;2023-11-21T08:27:48;98405.13;;;8.85;100.00
9969;BME280;5025;48.890;9.278;2023-11-21T08:30:14;98405.13;;;8.85;100.00
9969;BME280;5025;48.890;9.278;2023-11-21T08:32:41;98394.94;;;8.87;100.00
9969;BME280;5025;48.890;9.278;2023-11-21T08:35:07;98394.13;;;8.87;100.00
9969;BME280;5025;48.890;9.278;2023-11-21T08:37:33;98401.75;;;8.90;100.00
9969;BME280;5025;48.890;9.278;2023-11-21T08:40:02;98398.81;;;8.91;100.00
9969;BME280;5025;48.890;9.278;2023-11-21T08:42:28;98400.25;;;8.94;100.00
9969;BME280;5025;48.890;9.278;2023-11-21T08:44:55;98402.50;;;8.97;100.00
9969;BME280;5025;48.890;9.278;2023-11-21T08:47:23;98403.28;;;8.97;100.00
9969;BME280;5025;48.890;9.278;2023-11-21T08:49:50;98400.38;;;8.99;100.00
9969;BME280;5025;48.890;9.278;2023-11-21T08:52:17;98408.69;;;8.97;100.00
9969;BME280;5025;48.890;9.278;2023-11-21T08:54:42;98408.22;;;9.01;100.00
9969;BME280;5025;48.890;9.278;2023-11-21T08:57:08;98418.53;;;9.04;100.00
9969;BME280;5025;48.890;9.278;2023-11-21T08:59:34;98414.59;;;9.06;100.00
9969;BME280;5025;48.890;9.278;2023-11-21T09:01:59;98418.09;;;9.07;100.00
9969;BME280;5025;48.890;9.278;2023-11-21T09:04:24;98419.75;;;9.08;100.00
9969;BME280;5025;48.890;9.278;2023-11-21T09:06:50;98422.78;;;9.11;100.00
9969;BME280;5025;48.890;9.278;2023-11-21T09:09:15;98422.09;;;9.16;100.00
9969;BME280;5025;48.890;9.278;2023-11-21T09:11:41;98416.13;;;9.14;100.00
9969;BME280;5025;48.890;9.278;2023-11-21T09:14:06;98420.00;;;9.18;100.00
9969;BME280;5025;48.890;9.278;2023-11-21T09:16:31;98428.09;;;9.18;100.00
9969;BME280;5025;48.890;9.278;2023-11-21T09:18:57;98428.69;;;9.20;100.00
9969;BME280;5025;48.890;9.278;2023-11-21T09:21:22;98424.13;;;9.21;100.00
9969;BME280;5025;48.890;9.278;2023-11-21T09:23:48;98433.38;;;9.25;100.00
9969;BME280;5025;48.890;9.278;2023-11-21T09:26:14;98433.84;;;9.22;100.00
9969;BME280;5025;48.890;9.278;2023-11-21T09:28:41;98439.59;;;9.25;100.00
9969;BME280;5025;48.890;9.278;2023-11-21T09:31:09;98443.56;;;9.23;100.00
9969;BME280;5025;48.890;9.278;2023-11-21T09:33:34;98441.31;;;9.20;100.00
9969;BME280;5025;48.890;9.278;2023-11-21T09:36:00;98443.06;;;9.14;100.00
9969;BME280;5025;48.890;9.278;2023-11-21T09:38:26;98451.22;;;9.07;100.00
9969;BME280;5025;48.890;9.278;2023-11-21T09:40:54;98453.09;;;9.07;100.00
9969;BME280;5025;48.890;9.278;2023-11-21T09:43:20;98444.78;;;9.08;100.00
9969;BME280;5025;48.890;9.278;2023-11-21T09:45:48;98453.34;;;9.05;100.00
9969;BME280;5025;48.890;9.278;2023-11-21T09:48:16;98449.44;;;9.01;100.00
9969;BME280;5025;48.890;9.278;2023-11-21T09:50:43;98453.19;;;9.00;100.00
9969;BME280;5025;48.890;9.278;2023-11-21T09:53:16;98453.19;;;9.00;100.00
9969;BME280;5025;48.890;9.278;2023-11-21T09:55:44;98457.53;;;9.01;100.00
9969;BME280;5025;48.890;9.278;2023-11-21T09:58:10;98458.72;;;9.05;100.00
9969;BME280;5025;48.890;9.278;2023-11-21T10:00:43;98458.72;;;9.05;100.00
9969;BME280;5025;48.890;9.278;2023-11-21T10:03:09;98458.28;;;9.08;100.00
9969;BME280;5025;48.890;9.278;2023-11-21T10:05:35;98458.56;;;9.19;100.00
9969;BME280;5025;48.890;9.278;2023-11-21T10:08:00;98448.25;;;9.27;100.00
9969;BME280;5025;48.890;9.278;2023-11-21T10:10:27;98457.16;;;9.28;100.00
9969;BME280;5025;48.890;9.278;2023-11-21T10:12:56;98456.69;;;9.31;100.00
9969;BME280;5025;48.890;9.278;2023-11-21T10:15:23;98457.16;;;9.28;100.00
9969;BME280;5025;48.890;9.278;2023-11-21T10:17:51;98455.91;;;9.30;100.00
9969;BME280;5025;48.890;9.278;2023-11-21T10:20:19;98458.00;;;9.28;100.00
9969;BME280;5025;48.890;9.278;2023-11-21T10:22:44;98460.94;;;9.27;100.00
9969;BME280;5025;48.890;9.278;2023-11-21T10:25:11;98459.78;;;9.35;100.00
9969;BME280;5025;48.890;9.278;2023-11-21T10:27:40;98453.06;;;9.25;100.00
9969;BME280;5025;48.890;9.278;2023-11-21T10:30:06;98468.69;;;9.35;100.00
9969;BME280;5025;48.890;9.278;2023-11-21T10:32:33;98462.09;;;9.31;100.00
9969;BME280;5025;48.890;9.278;2023-11-21T10:34:59;98471.56;;;9.22;100.00
9969;BME280;5025;48.890;9.278;2023-11-21T10:37:34;98467.53;;;9.12;100.00
9969;BME280;5025;48.890;9.278;2023-11-21T10:39:59;98471.16;;;9.06;100.00
9969;BME280;5025;48.890;9.278;2023-11-21T10:42:25;98466.66;;;9.00;100.00
9969;BME280;5025;48.890;9.278;2023-11-21T10:44:52;98472.28;;;8.99;100.00
9969;BME280;5025;48.890;9.278;2023-11-21T10:47:17;98476.31;;;9.08;100.00
9969;BME280;5025;48.890;9.278;2023-11-21T10:49:44;98479.00;;;9.08;100.00
9969;BME280;5025;48.890;9.278;2023-11-21T10:52:12;98473.16;;;9.11;100.00
9969;BME280;5025;48.890;9.278;2023-11-21T10:54:43;98477.13;;;9.08;100.00
9969;BME280;5025;48.890;9.278;2023-11-21T10:57:09;98479.00;;;9.08;100.00
9969;BME280;5025;48.890;9.278;2023-11-21T10:59:35;98477.25;;;9.13;100.00
9969;BME280;5025;48.890;9.278;2023-11-21T11:02:06;98484.31;;;9.14;100.00
9969;BME280;5025;48.890;9.278;2023-11-21T11:04:36;98480.03;;;9.07;100.00
9969;BME280;5025;48.890;9.278;2023-11-21T11:07:05;98477.56;;;9.05;100.00
9969;BME280;5025;48.890;9.278;2023-11-21T11:09:34;98479.00;;;9.08;100.00
9969;BME280;5025;48.890;9.278;2023-11-21T11:12:01;98474.19;;;9.10;100.00
9969;BME280;5025;48.890;9.278;2023-11-21T11:14:27;98471.28;;;9.11;100.00
9969;BME280;5025;48.890;9.278;2023-11-21T11:16:54;98477.47;;;9.12;100.00
9969;BME280;5025;48.890;9.278;2023-11-21T11:19:20;98470.38;;;9.18;100.00
9969;BME280;5025;48.890;9.278;2023-11-21T11:22:00;98477.53;;;9.24;100.00
9969;BME280;5025;48.890;9.278;2023-11-21T11:24:53;98474.16;;;9.28;100.00
9969;BME280;5025;48.890;9.278;2023-11-21T11:27:40;98473.72;;;9.31;100.00
9969;BME280;5025;48.890;9.278;2023-11-21T11:30:26;98483.81;;;9.36;100.00
9969;BME280;5025;48.890;9.278;2023-11-21T11:33:10;98481.13;;;9.36;100.00
9969;BME280;5025;48.890;9.278;2023-11-21T11:35:50;98477.09;;;9.27;100.00
9969;BME280;5025;48.890;9.278;2023-11-21T11:38:18;98490.44;;;9.22;100.00
9969;BME280;5025;48.890;9.278;2023-11-21T11:40:47;98487.13;;;9.20;100.00
9969;BME280;5025;48.890;9.278;2023-11-21T11:43:12;98488.09;;;9.25;100.00
9969;BME280;5025;48.890;9.278;2023-11-21T11:45:38;98484.78;;;9.23;100.00
9969;BME280;5025;48.890;9.278;2023-11-21T11:48:07;98487.47;;;9.23;100.00
9969;BME280;5025;48.890;9.278;2023-11-21T11:50:33;98485.03;;;9.22;100.00
9969;BME280;5025;48.890;9.278;2023-11-21T11:53:13;98479.91;;;9.32;100.00
9969;BME280;5025;48.890;9.278;2023-11-21T11:55:38;98480.72;;;9.32;100.00
9969;BME280;5025;48.890;9.278;2023-11-21T11:58:06;98477.81;;;9.34;100.00
9969;BME280;5025;48.890;9.278;2023-11-21T12:00:35;98482.75;;;9.37;100.00
9969;BME280;5025;48.890;9.278;2023-11-21T12:03:04;98481.47;;;9.40;100.00
9969;BME280;5025;48.890;9.278;2023-11-21T12:05:32;98484.97;;;9.40;100.00
9969;BME280;5025;48.890;9.278;2023-11-21T12:08:02;98488.88;;;9.44;100.00
9969;BME280;5025;48.890;9.278;2023-11-21T12:10:30;98486.31;;;9.49;100.00
9969;BME280;5025;48.890;9.278;2023-11-21T12:13:07;98481.66;;;9.57;100.00
9969;BME280;5025;48.890;9.278;2023-11-21T12:15:33;98482.38;;;9.64;100.00
9969;BME280;5025;48.890;9.278;2023-11-21T12:17:59;98490.13;;;9.72;100.00
9969;BME280;5025;48.890;9.278;2023-11-21T12:20:26;98491.91;;;9.78;100.00
9969;BME280;5025;48.890;9.278;2023-11-21T12:22:56;98495.91;;;9.87;100.00
9969;BME280;5025;48.890;9.278;2023-11-21T12:25:26;98493.34;;;9.93;100.00
9969;BME280;5025;48.890;9.278;2023-11-21T12:27:57;98494.75;;;9.95;100.00
9969;BME280;5025;48.890;9.278;2023-11-21T12:30:24;98492.06;;;9.95;100.00
9969;BME280;5025;48.890;9.278;2023-11-21T12:32:54;98486.56;;;9.90;100.00
9969;BME280;5025;48.890;9.278;2023-11-21T12:35:22;98489.47;;;9.89;100.00
9969;BME280;5025;48.890;9.278;2023-11-21T12:37:48;98501.66;;;9.91;100.00
9969;BME280;5025;48.890;9.278;2023-11-21T12:40:15;98497.69;;;9.94;100.00
9969;BME280;5025;48.890;9.278;2023-11-21T12:42:48;98501.91;;;9.90;100.00
9969;BME280;5025;48.890;9.278;2023-11-21T12:47:41;98508.47;;;9.94;100.00
9969;BME280;5025;48.890;9.278;2023-11-21T12:50:07;98509.91;;;9.96;100.00
9969;BME280;5025;48.890;9.278;2023-11-21T12:52:39;98503.66;;;9.96;100.00
9969;BME280;5025;48.890;9.278;2023-11-21T12:55:05;98502.63;;;9.97;100.00
9969;BME280;5025;48.890;9.278;2023-11-21T12:57:33;98509.66;;;9.98;100.00
9969;BME280;5025;48.890;9.278;2023-11-21T12:59:58;98507.19;;;9.96;100.00
9969;BME280;5025;48.890;9.278;2023-11-21T13:02:30;98509.06;;;9.96;100.00
9969;BME280;5025;48.890;9.278;2023-11-21T13:04:57;98506.81;;;9.93;100.00
9969;BME280;5025;48.890;9.278;2023-11-21T13:07:23;98508.59;;;9.87;100.00
9969;BME280;5025;48.890;9.278;2023-11-21T13:09:52;98511.97;;;9.82;100.00
9969;BME280;5025;48.890;9.278;2023-11-21T13:12:17;98511.38;;;9.80;100.00
9969;BME280;5025;48.890;9.278;2023-11-21T13:14:45;98518.28;;;9.76;100.00
9969;BME280;5025;48.890;9.278;2023-11-21T13:17:11;98519.91;;;9.77;100.00
9969;BME280;5025;48.890;9.278;2023-11-21T13:19:37;98522.84;;;9.76;100.00
9969;BME280;5025;48.890;9.278;2023-11-21T13:22:03;98521.44;;;9.73;100.00
9969;BME280;5025;48.890;9.278;2023-11-21T13:24:29;98517.69;;;9.74;100.00
9969;BME280;5025;48.890;9.278;2023-11-21T13:26:54;98524.72;;;9.75;100.00